createdAt,value
2023-09-23T00:00:25.567Z,11.51
2023-09-23T00:02:51.933Z,11.47
2023-09-23T00:05:18.244Z,11.46
2023-09-23T00:07:44.633Z,11.41
2023-09-23T00:10:10.929Z,11.30
2023-09-23T00:12:37.143Z,11.22
2023-09-23T00:15:03.325Z,11.19
2023-09-23T00:17:29.606Z,11.03
2023-09-23T00:19:55.902Z,11.07
2023-09-23T00:22:22.143Z,11.00
2023-09-23T00:24:48.395Z,10.96
2023-09-23T00:27:14.595Z,10.93
2023-09-23T00:29:40.769Z,10.89
2023-09-23T00:32:07.057Z,10.84
2023-09-23T00:34:33.325Z,10.80
2023-09-23T00:36:59.533Z,10.79
2023-09-23T00:39:26.313Z,10.66
2023-09-23T00:41:52.522Z,10.75
2023-09-23T00:44:18.753Z,10.73
2023-09-23T00:46:44.998Z,10.70
2023-09-23T00:49:11.255Z,10.68
2023-09-23T00:51:37.511Z,10.65
2023-09-23T00:54:03.793Z,10.64
2023-09-23T00:56:30.024Z,10.67
2023-09-23T00:58:56.252Z,10.71
2023-09-23T01:01:22.622Z,10.80
2023-09-23T01:03:48.923Z,10.73
2023-09-23T01:06:15.171Z,10.63
2023-09-23T01:08:41.385Z,10.64
2023-09-23T01:11:07.611Z,10.63
2023-09-23T01:13:33.851Z,10.62
2023-09-23T01:16:00.093Z,10.62
2023-09-23T01:18:29.132Z,10.60
2023-09-23T01:20:55.374Z,10.61
2023-09-23T01:23:21.571Z,10.61
2023-09-23T01:25:47.859Z,10.61
2023-09-23T01:28:15.219Z,10.65
2023-09-23T01:30:41.422Z,10.63
2023-09-23T01:33:07.645Z,10.68
2023-09-23T01:35:33.948Z,10.66
2023-09-23T01:38:00.164Z,10.72
2023-09-23T01:40:26.392Z,10.70
2023-09-23T01:42:52.627Z,10.73
2023-09-23T01:45:18.886Z,10.79
2023-09-23T01:47:45.162Z,10.74
2023-09-23T01:50:11.563Z,10.80
2023-09-23T01:52:37.832Z,10.69
2023-09-23T01:55:04.069Z,10.63
2023-09-23T01:57:30.273Z,10.58
2023-09-23T01:59:56.474Z,10.58
2023-09-23T02:02:22.789Z,10.56
2023-09-23T02:04:49.157Z,10.52
2023-09-23T02:07:15.424Z,10.49
2023-09-23T02:09:41.652Z,10.46
2023-09-23T02:12:07.812Z,10.41
2023-09-23T02:14:34.030Z,10.38
2023-09-23T02:17:05.853Z,10.38
2023-09-23T02:19:32.129Z,10.37
2023-09-23T02:21:58.366Z,10.32
2023-09-23T02:24:24.581Z,10.27
2023-09-23T02:26:50.805Z,10.26
2023-09-23T02:29:18.112Z,10.22
2023-09-23T02:31:44.426Z,10.20
2023-09-23T02:34:10.626Z,10.20
2023-09-23T02:36:36.859Z,10.27
2023-09-23T02:41:53.117Z,10.21
2023-09-23T02:44:19.369Z,10.18
2023-09-23T02:46:45.763Z,10.17
2023-09-23T02:49:12.163Z,10.11
2023-09-23T02:51:38.412Z,10.11
2023-09-23T02:54:04.626Z,10.12
2023-09-23T02:56:30.887Z,10.06
2023-09-23T02:58:57.163Z,10.06
2023-09-23T03:01:23.443Z,10.00
2023-09-23T03:03:49.803Z,9.97
2023-09-23T03:06:16.062Z,9.94
2023-09-23T03:08:42.254Z,9.86
2023-09-23T03:11:08.479Z,9.90
2023-09-23T03:13:34.752Z,9.91
2023-09-23T03:16:00.993Z,9.85
2023-09-23T03:18:27.260Z,9.85
2023-09-23T03:20:53.426Z,9.82
2023-09-23T03:23:19.629Z,9.77
2023-09-23T03:25:45.940Z,9.75
2023-09-23T03:28:12.203Z,9.70
2023-09-23T03:33:23.626Z,9.66
2023-09-23T03:35:49.845Z,9.67
2023-09-23T03:38:16.104Z,9.64
2023-09-23T03:40:42.457Z,9.59
2023-09-23T03:43:08.719Z,9.57
2023-09-23T03:45:34.959Z,9.56
2023-09-23T03:48:01.161Z,9.52
2023-09-23T03:50:27.393Z,9.54
2023-09-23T03:52:53.621Z,9.48
2023-09-23T03:55:19.835Z,9.45
2023-09-23T03:57:46.048Z,9.45
2023-09-23T04:00:12.284Z,9.46
2023-09-23T04:02:38.585Z,9.43
2023-09-23T04:05:04.872Z,9.43
2023-09-23T04:07:31.084Z,9.48
2023-09-23T04:10:04.740Z,9.51
2023-09-23T04:12:30.979Z,9.66
2023-09-23T04:14:57.259Z,9.62
2023-09-23T04:17:25.970Z,9.61
2023-09-23T04:19:52.245Z,9.58
2023-09-23T04:22:18.445Z,9.55
2023-09-23T04:24:44.675Z,9.53
2023-09-23T04:27:10.853Z,9.53
2023-09-23T04:29:37.103Z,9.48
2023-09-23T04:32:03.375Z,9.52
2023-09-23T04:34:29.618Z,9.49
2023-09-23T04:36:55.830Z,9.42
2023-09-23T04:39:22.034Z,9.38
2023-09-23T04:41:48.224Z,9.38
2023-09-23T04:44:14.522Z,9.30
2023-09-23T04:46:40.766Z,9.25
2023-09-23T04:49:07.006Z,9.28
2023-09-23T04:51:33.279Z,9.24
2023-09-23T04:53:59.525Z,9.22
2023-09-23T04:56:25.787Z,9.21
2023-09-23T04:58:52.180Z,9.17
2023-09-23T05:01:18.483Z,9.15
2023-09-23T05:03:44.680Z,9.16
2023-09-23T05:06:11.229Z,9.12
2023-09-23T05:08:37.464Z,9.12
2023-09-23T05:11:03.693Z,9.09
2023-09-23T05:13:29.909Z,9.05
2023-09-23T05:15:56.212Z,9.07
2023-09-23T05:18:22.430Z,9.11
2023-09-23T05:20:48.682Z,9.10
2023-09-23T05:23:15.130Z,9.15
2023-09-23T05:25:41.377Z,9.15
2023-09-23T05:28:10.012Z,9.22
2023-09-23T05:30:36.795Z,9.23
2023-09-23T05:33:03.058Z,9.30
2023-09-23T05:35:29.347Z,9.32
2023-09-23T05:37:55.573Z,9.36
2023-09-23T05:40:21.811Z,9.37
2023-09-23T05:42:48.046Z,9.40
2023-09-23T05:45:14.237Z,9.43
2023-09-23T05:47:40.600Z,9.50
2023-09-23T05:50:06.898Z,9.59
2023-09-23T05:52:33.129Z,9.66
2023-09-23T05:54:59.354Z,9.75
2023-09-23T05:57:25.615Z,9.85
2023-09-23T05:59:51.932Z,9.93
2023-09-23T06:02:18.238Z,10.03
2023-09-23T06:04:44.502Z,10.09
2023-09-23T06:07:10.697Z,10.16
2023-09-23T06:09:36.985Z,10.27
2023-09-23T06:12:03.199Z,10.39
2023-09-23T06:14:30.196Z,10.48
2023-09-23T06:16:56.539Z,10.55
2023-09-23T06:19:22.865Z,10.56
2023-09-23T06:21:50.942Z,10.67
2023-09-23T06:24:17.147Z,10.79
2023-09-23T06:26:43.480Z,10.94
2023-09-23T06:29:11.466Z,11.02
2023-09-23T06:31:37.717Z,11.12
2023-09-23T06:34:03.929Z,11.27
2023-09-23T06:36:30.134Z,11.37
2023-09-23T06:38:57.942Z,11.41
2023-09-23T06:41:24.198Z,11.58
2023-09-23T06:43:50.421Z,11.70
2023-09-23T06:46:16.735Z,11.89
2023-09-23T06:48:42.938Z,12.02
2023-09-23T06:51:09.149Z,12.20
2023-09-23T06:53:35.319Z,12.19
2023-09-23T06:56:01.580Z,12.23
2023-09-23T06:58:29.147Z,12.39
2023-09-23T07:00:55.365Z,12.42
2023-09-23T07:03:22.518Z,12.64
2023-09-23T07:05:49.490Z,12.71
2023-09-23T07:08:16.650Z,12.96
2023-09-23T07:10:43.000Z,13.12
2023-09-23T07:13:11.727Z,13.30
2023-09-23T07:15:39.662Z,13.67
2023-09-23T07:18:05.963Z,13.78
2023-09-23T07:20:32.309Z,13.86
2023-09-23T07:22:58.565Z,14.12
2023-09-23T07:25:24.808Z,14.20
2023-09-23T07:27:51.052Z,14.26
2023-09-23T07:30:18.786Z,14.24
2023-09-23T07:32:45.137Z,14.70
2023-09-23T07:35:18.630Z,15.04
2023-09-23T07:37:44.868Z,15.49
2023-09-23T07:40:13.288Z,15.84
2023-09-23T07:42:39.491Z,16.10
2023-09-23T07:45:05.774Z,16.52
2023-09-23T07:47:32.055Z,16.48
2023-09-23T07:49:58.472Z,16.39
2023-09-23T07:52:24.864Z,15.99
2023-09-23T07:54:51.074Z,15.99
2023-09-23T07:57:17.294Z,16.00
2023-09-23T07:59:43.540Z,16.32
2023-09-23T08:02:09.805Z,16.48
2023-09-23T08:04:36.076Z,16.76
2023-09-23T08:07:02.289Z,16.67
2023-09-23T08:09:28.512Z,17.31
2023-09-23T08:11:54.715Z,17.07
2023-09-23T08:14:21.013Z,17.19
2023-09-23T08:16:47.254Z,17.82
2023-09-23T08:19:15.628Z,18.00
2023-09-23T08:21:41.813Z,17.84
2023-09-23T08:24:07.989Z,18.27
2023-09-23T08:26:34.211Z,18.42
2023-09-23T08:34:41.621Z,19.11
2023-09-23T08:37:07.845Z,19.48
2023-09-23T08:39:34.046Z,20.14
2023-09-23T08:42:00.264Z,19.98
2023-09-23T08:44:28.611Z,19.94
2023-09-23T08:46:54.885Z,20.38
2023-09-23T08:49:21.079Z,20.14
2023-09-23T08:51:47.327Z,19.80
2023-09-23T08:54:13.594Z,19.97
2023-09-23T08:56:39.820Z,19.72
2023-09-23T08:59:06.043Z,19.03
2023-09-23T09:01:32.284Z,18.68
2023-09-23T09:03:58.590Z,18.29
2023-09-23T09:06:24.785Z,18.23
2023-09-23T09:08:50.980Z,18.17
2023-09-23T09:11:18.419Z,18.21
2023-09-23T09:13:44.653Z,17.97
2023-09-23T09:16:10.963Z,18.34
2023-09-23T09:18:37.294Z,18.34
2023-09-23T09:21:03.525Z,18.11
2023-09-23T09:23:29.792Z,18.07
2023-09-23T09:25:56.300Z,18.03
2023-09-23T09:28:22.548Z,18.13
2023-09-23T09:30:48.764Z,18.41
2023-09-23T09:33:14.989Z,18.18
2023-09-23T09:35:41.238Z,18.58
2023-09-23T09:38:17.378Z,18.86
2023-09-23T09:40:44.532Z,18.64
2023-09-23T09:43:10.739Z,19.04
2023-09-23T09:45:36.954Z,18.93
2023-09-23T09:48:03.197Z,18.94
2023-09-23T09:50:29.499Z,18.91
2023-09-23T09:52:55.919Z,18.77
2023-09-23T09:55:22.186Z,18.69
2023-09-23T09:57:48.415Z,18.82
2023-09-23T10:00:14.804Z,18.97
2023-09-23T10:02:41.154Z,19.13
2023-09-23T10:05:07.550Z,19.25
2023-09-23T10:07:34.164Z,19.48
2023-09-23T10:10:01.392Z,19.87
2023-09-23T10:12:27.605Z,19.59
2023-09-23T10:14:53.881Z,19.71
2023-09-23T10:17:20.122Z,19.70
2023-09-23T10:19:46.347Z,19.89
2023-09-23T10:22:12.568Z,19.78
2023-09-23T10:24:38.764Z,19.81
2023-09-23T10:27:06.228Z,19.66
2023-09-23T10:29:32.471Z,19.56
2023-09-23T10:31:58.765Z,18.96
2023-09-23T10:34:30.815Z,19.13
2023-09-23T10:37:03.003Z,19.22
2023-09-23T10:39:29.294Z,18.99
2023-09-23T10:41:55.599Z,18.98
2023-09-23T10:44:21.880Z,19.52
2023-09-23T10:46:48.164Z,19.99
2023-09-23T10:49:14.461Z,20.12
2023-09-23T10:51:40.659Z,19.84
2023-09-23T10:54:06.847Z,19.44
2023-09-23T10:56:33.304Z,19.18
2023-09-23T10:58:59.574Z,19.70
2023-09-23T11:01:28.707Z,19.21
2023-09-23T11:03:55.019Z,19.60
2023-09-23T11:06:21.259Z,19.81
2023-09-23T11:08:47.683Z,19.67
2023-09-23T11:11:14.101Z,19.39
2023-09-23T11:13:40.432Z,19.22
2023-09-23T11:16:06.670Z,18.96
2023-09-23T11:18:32.890Z,18.89
2023-09-23T11:20:59.080Z,18.80
2023-09-23T11:23:25.420Z,19.23
2023-09-23T11:25:51.661Z,19.17
2023-09-23T11:31:01.689Z,19.24
2023-09-23T11:33:27.966Z,19.11
2023-09-23T11:35:54.232Z,18.93
2023-09-23T11:38:20.505Z,18.85
2023-09-23T11:40:46.717Z,18.77
2023-09-23T11:43:12.992Z,19.23
2023-09-23T11:45:39.215Z,19.30
2023-09-23T11:48:05.498Z,19.73
2023-09-23T11:50:31.726Z,20.73
2023-09-23T11:52:58.054Z,21.74
2023-09-23T11:55:24.313Z,21.81
2023-09-23T11:57:50.591Z,21.84
2023-09-23T12:00:16.814Z,22.09
2023-09-23T12:02:43.103Z,21.33
2023-09-23T12:05:09.477Z,20.82
2023-09-23T12:07:35.756Z,20.29
2023-09-23T12:10:01.972Z,20.13
2023-09-23T12:12:28.176Z,20.33
2023-09-23T12:14:54.358Z,20.71
2023-09-23T12:17:20.656Z,20.39
2023-09-23T12:19:46.949Z,19.93
2023-09-23T12:22:13.171Z,19.76
2023-09-23T12:24:39.388Z,20.22
2023-09-23T12:27:05.586Z,20.40
2023-09-23T12:29:31.879Z,20.74
2023-09-23T12:31:58.203Z,21.12
2023-09-23T12:34:24.531Z,21.24
2023-09-23T12:36:50.739Z,21.90
2023-09-23T12:39:16.942Z,22.22
2023-09-23T12:41:43.179Z,22.12
2023-09-23T12:44:09.653Z,21.73
2023-09-23T12:46:36.029Z,21.06
2023-09-23T12:49:09.381Z,20.62
2023-09-23T12:54:25.262Z,20.47
2023-09-23T12:56:51.482Z,20.54
2023-09-23T12:59:17.696Z,20.53
2023-09-23T13:01:43.989Z,20.61
2023-09-23T13:04:10.324Z,20.75
2023-09-23T13:06:36.579Z,21.59
2023-09-23T13:09:02.796Z,22.17
2023-09-23T13:11:29.021Z,22.41
2023-09-23T13:13:55.285Z,22.15
2023-09-23T13:16:21.643Z,22.23
2023-09-23T13:18:48.016Z,22.01
2023-09-23T13:32:29.708Z,22.15
2023-09-23T13:34:56.058Z,21.94
2023-09-23T13:37:22.314Z,21.25
2023-09-23T13:39:48.708Z,20.93
2023-09-23T13:42:14.912Z,20.72
2023-09-23T13:44:41.105Z,20.51
2023-09-23T13:47:07.424Z,20.60
2023-09-23T13:49:33.738Z,20.67
2023-09-23T13:51:59.999Z,21.24
2023-09-23T13:54:26.236Z,21.02
2023-09-23T13:56:52.450Z,20.93
2023-09-23T13:59:18.720Z,20.68
2023-09-23T14:01:44.939Z,20.75
2023-09-23T14:04:11.164Z,20.83
2023-09-23T14:06:43.475Z,20.64
2023-09-23T14:09:12.143Z,20.34
2023-09-23T14:11:38.644Z,20.45
2023-09-23T14:14:04.956Z,21.53
2023-09-23T14:16:31.249Z,22.58
2023-09-23T14:18:57.501Z,22.59
2023-09-23T14:21:23.691Z,22.99
2023-09-23T14:23:49.884Z,22.47
2023-09-23T14:26:16.178Z,21.55
2023-09-23T14:28:42.462Z,21.04
2023-09-23T14:31:08.785Z,20.84
2023-09-23T14:33:35.079Z,20.37
2023-09-23T14:36:01.271Z,20.08
2023-09-23T14:38:27.572Z,19.96
2023-09-23T14:40:53.825Z,20.06
2023-09-23T14:43:20.029Z,20.12
2023-09-23T14:45:46.281Z,20.46
2023-09-23T14:48:12.536Z,20.73
2023-09-23T14:50:38.807Z,21.01
2023-09-23T14:53:05.085Z,21.21
2023-09-23T14:55:31.301Z,21.81
2023-09-23T14:57:57.545Z,21.16
2023-09-23T15:00:23.763Z,20.88
2023-09-23T15:02:50.151Z,20.60
2023-09-23T15:05:16.473Z,20.77
2023-09-23T15:07:42.807Z,21.13
2023-09-23T15:10:09.060Z,21.70
2023-09-23T15:12:35.509Z,21.67
2023-09-23T15:15:01.741Z,21.58
2023-09-23T15:17:27.980Z,22.58
2023-09-23T15:19:54.208Z,23.38
2023-09-23T15:22:20.434Z,23.28
2023-09-23T15:24:46.795Z,23.11
2023-09-23T15:30:06.548Z,23.42
2023-09-23T15:32:32.849Z,22.66
2023-09-23T15:34:59.658Z,22.23
2023-09-23T15:37:25.882Z,22.09
2023-09-23T15:39:52.174Z,21.85
2023-09-23T15:42:20.028Z,20.95
2023-09-23T15:44:46.280Z,20.36
2023-09-23T15:47:12.486Z,19.87
2023-09-23T15:49:42.973Z,19.85
2023-09-23T15:52:10.488Z,20.03
2023-09-23T15:54:36.717Z,20.41
2023-09-23T15:57:02.927Z,20.02
2023-09-23T15:59:29.192Z,19.80
2023-09-23T16:01:56.447Z,19.43
2023-09-23T16:04:29.813Z,19.03
2023-09-23T16:06:56.033Z,18.74
2023-09-23T16:09:28.029Z,18.45
2023-09-23T16:11:54.299Z,18.31
2023-09-23T16:14:23.933Z,18.15
2023-09-23T16:16:50.272Z,18.06
2023-09-23T16:19:16.618Z,17.92
2023-09-23T16:21:48.721Z,17.79
2023-09-23T16:24:14.954Z,17.75
2023-09-23T16:26:41.179Z,17.69
2023-09-23T16:29:07.489Z,17.61
2023-09-23T16:31:33.840Z,17.61
2023-09-23T16:34:00.087Z,17.63
2023-09-23T16:36:56.538Z,17.45
2023-09-23T16:39:13.792Z,17.36
2023-09-23T16:41:40.128Z,17.30
2023-09-23T16:44:08.656Z,17.27
2023-09-23T16:46:34.918Z,17.20
2023-09-23T16:49:01.209Z,17.18
2023-09-23T16:51:27.434Z,17.17
2023-09-23T16:53:53.609Z,17.07
2023-09-23T16:56:20.863Z,17.04
2023-09-23T16:58:47.319Z,16.94
2023-09-23T17:01:13.703Z,16.87
2023-09-23T17:03:40.149Z,16.82
2023-09-23T17:06:06.397Z,16.71
2023-09-23T17:08:32.635Z,16.58
2023-09-23T17:10:58.906Z,16.44
2023-09-23T17:13:25.147Z,16.31
2023-09-23T17:15:51.353Z,16.15
2023-09-23T17:18:17.728Z,16.02
2023-09-23T17:20:44.178Z,15.87
2023-09-23T17:23:11.039Z,15.84
2023-09-23T17:25:38.144Z,15.73
2023-09-23T17:28:04.371Z,15.63
2023-09-23T17:30:30.624Z,15.49
2023-09-23T17:32:56.941Z,15.34
2023-09-23T17:35:23.283Z,15.21
2023-09-23T17:37:50.670Z,15.07
2023-09-23T17:40:18.007Z,14.92
2023-09-23T17:42:44.222Z,14.87
2023-09-23T17:45:10.528Z,14.77
2023-09-23T17:47:39.981Z,14.63
2023-09-23T17:50:06.312Z,14.56
2023-09-23T17:52:32.894Z,14.47
2023-09-23T17:54:59.182Z,14.34
2023-09-23T17:57:25.510Z,14.26
2023-09-23T17:59:51.884Z,14.18
2023-09-23T18:02:18.248Z,14.10
2023-09-23T18:04:44.492Z,14.02
2023-09-23T18:07:10.717Z,13.98
2023-09-23T18:09:39.794Z,13.95
2023-09-23T18:12:06.302Z,13.98
2023-09-23T18:14:32.558Z,14.04
2023-09-23T18:16:58.857Z,14.01
2023-09-23T18:19:25.253Z,13.93
2023-09-23T18:21:51.494Z,13.85
2023-09-23T18:24:18.012Z,13.73
2023-09-23T18:26:44.448Z,13.69
2023-09-23T18:29:10.793Z,13.62
2023-09-23T18:31:36.990Z,13.74
2023-09-23T18:34:03.317Z,13.80
2023-09-23T18:36:29.580Z,13.97
2023-09-23T18:38:55.859Z,14.12
2023-09-23T18:41:22.172Z,14.19
2023-09-23T18:43:48.691Z,14.26
2023-09-23T18:46:15.161Z,14.24
2023-09-23T18:48:41.529Z,14.33
2023-09-23T18:51:07.877Z,14.31
2023-09-23T18:53:35.934Z,14.27
2023-09-23T18:56:04.277Z,14.27
2023-09-23T18:58:30.472Z,14.23
2023-09-23T19:00:57.022Z,14.26
2023-09-23T19:03:23.437Z,14.31
2023-09-23T19:05:49.922Z,14.28
2023-09-23T19:08:16.262Z,14.36
2023-09-23T19:10:42.891Z,14.36
2023-09-23T19:13:09.190Z,14.33
2023-09-23T19:15:35.461Z,14.27
2023-09-23T19:18:01.866Z,14.23
2023-09-23T19:20:28.675Z,14.22
2023-09-23T19:22:54.945Z,14.21
2023-09-23T19:25:21.232Z,14.18
2023-09-23T19:27:50.975Z,14.10
2023-09-23T19:30:17.257Z,14.01
2023-09-23T19:32:43.646Z,13.98
2023-09-23T19:35:12.171Z,13.93
2023-09-23T19:37:38.453Z,13.89
2023-09-23T19:40:04.975Z,13.83
2023-09-23T19:42:31.966Z,13.80
2023-09-23T19:44:58.269Z,13.75
2023-09-23T19:47:24.575Z,13.75
2023-09-23T19:49:50.968Z,13.74
2023-09-23T19:52:17.211Z,13.75
2023-09-23T19:54:43.448Z,13.72
2023-09-23T19:57:11.020Z,13.67
2023-09-23T19:59:37.972Z,13.63
2023-09-23T20:02:04.492Z,13.65
2023-09-23T20:04:37.297Z,13.63
2023-09-23T20:12:43.993Z,13.62
2023-09-23T20:15:10.243Z,13.61
2023-09-23T20:17:36.556Z,13.60
2023-09-23T20:20:03.962Z,13.57
2023-09-23T20:22:32.847Z,13.52
2023-09-23T20:24:59.158Z,13.47
2023-09-23T20:27:25.412Z,13.42
2023-09-23T20:30:05.755Z,13.33
2023-09-23T20:32:33.745Z,13.26
2023-09-23T20:35:00.001Z,13.19
2023-09-23T20:37:26.497Z,13.13
2023-09-23T20:39:53.782Z,13.09
2023-09-23T20:42:20.187Z,13.04
2023-09-23T20:44:46.533Z,12.96
2023-09-23T20:47:12.806Z,12.78
2023-09-23T20:49:39.076Z,12.81
2023-09-23T20:52:05.280Z,12.70
2023-09-23T20:54:31.521Z,12.62
2023-09-23T20:56:57.716Z,12.55
2023-09-23T20:59:24.010Z,12.45
2023-09-23T21:01:50.365Z,12.43
2023-09-23T21:04:16.902Z,12.32
2023-09-23T21:06:43.168Z,12.20
2023-09-23T21:09:09.416Z,12.16
2023-09-23T21:11:35.658Z,12.05
2023-09-23T21:14:01.905Z,11.98
2023-09-23T21:16:28.126Z,11.92
2023-09-23T21:18:54.420Z,11.87
2023-09-23T21:21:20.689Z,11.82
2023-09-23T21:23:47.163Z,11.77
2023-09-23T21:26:13.595Z,11.73
2023-09-23T21:28:39.846Z,11.68
2023-09-23T21:31:06.164Z,11.64
2023-09-23T21:33:32.415Z,11.62
2023-09-23T21:35:58.719Z,11.54
2023-09-23T21:38:24.960Z,11.47
2023-09-23T21:40:51.216Z,11.44
2023-09-23T21:43:17.416Z,11.40
2023-09-23T21:45:43.618Z,11.35
2023-09-23T21:48:10.066Z,11.34
2023-09-23T21:50:36.524Z,11.29
2023-09-23T21:53:02.831Z,11.25
2023-09-23T21:55:29.080Z,11.21
2023-09-23T21:57:55.263Z,11.12
2023-09-23T22:00:21.457Z,11.09
2023-09-23T22:02:47.837Z,11.02
2023-09-23T22:05:14.328Z,10.93
2023-09-23T22:07:40.750Z,10.92
2023-09-23T22:10:06.960Z,10.91
2023-09-23T22:12:33.408Z,10.83
2023-09-23T22:14:59.609Z,10.81
2023-09-23T22:17:25.898Z,10.78
2023-09-23T22:19:52.241Z,10.74
2023-09-23T22:22:18.469Z,10.74
2023-09-23T22:24:44.692Z,10.67
2023-09-23T22:27:18.488Z,10.74
2023-09-23T22:29:44.755Z,10.76
2023-09-23T22:32:10.981Z,10.69
2023-09-23T22:34:37.221Z,10.59
2023-09-23T22:37:03.419Z,10.56
2023-09-23T22:39:29.594Z,10.54
2023-09-23T22:41:55.883Z,10.54
2023-09-23T22:44:22.099Z,10.50
2023-09-23T22:46:48.411Z,10.47
2023-09-23T22:49:14.635Z,10.44
2023-09-23T22:51:40.868Z,10.43
2023-09-23T22:54:07.160Z,10.40
2023-09-23T22:56:33.406Z,10.33
2023-09-23T22:58:59.613Z,10.29
2023-09-23T23:01:25.876Z,10.26
2023-09-23T23:03:52.216Z,10.22
2023-09-23T23:06:18.516Z,10.19
2023-09-23T23:08:44.904Z,10.18
2023-09-23T23:11:12.048Z,10.14
2023-09-23T23:13:38.229Z,10.07
2023-09-23T23:16:04.460Z,10.06
2023-09-23T23:18:30.654Z,10.05
2023-09-23T23:20:56.893Z,10.03
2023-09-23T23:23:23.153Z,9.98
2023-09-23T23:25:49.356Z,9.94
2023-09-23T23:28:15.550Z,9.91
2023-09-23T23:30:41.782Z,9.91
2023-09-23T23:33:08.064Z,9.87
2023-09-23T23:35:34.417Z,9.80
2023-09-23T23:38:00.649Z,9.75
2023-09-23T23:40:26.883Z,9.72
2023-09-23T23:42:53.213Z,9.74
2023-09-23T23:45:19.454Z,9.72
2023-09-23T23:47:45.712Z,9.70
2023-09-23T23:50:11.972Z,9.69
2023-09-23T23:52:38.214Z,9.68
2023-09-23T23:55:04.446Z,9.66
2023-09-23T23:57:30.646Z,9.66
2023-09-23T23:59:56.934Z,9.65
